sensor_id;sensor_type;location;lat;lon;timestamp;P1;durP1;ratioP1;P2;durP2;ratioP2
63818;SDS011;49970;54.976;73.248;2023-11-19T00:02:21;2.75;;;1.92;;
63818;SDS011;49970;54.976;73.248;2023-11-19T00:04:47;2.25;;;2.15;;
63818;SDS011;49970;54.976;73.248;2023-11-19T00:07:14;1.77;;;1.67;;
63818;SDS011;49970;54.976;73.248;2023-11-19T00:09:40;3.30;;;2.03;;
63818;SDS011;49970;54.976;73.248;2023-11-19T00:12:06;2.50;;;2.25;;
63818;SDS011;49970;54.976;73.248;2023-11-19T00:14:33;2.80;;;2.65;;
63818;SDS011;49970;54.976;73.248;2023-11-19T00:17:00;2.90;;;2.80;;
63818;SDS011;49970;54.976;73.248;2023-11-19T00:19:26;5.22;;;3.10;;
63818;SDS011;49970;54.976;73.248;2023-11-19T00:21:53;1.80;;;1.70;;
63818;SDS011;49970;54.976;73.248;2023-11-19T00:24:19;1.95;;;1.85;;
63818;SDS011;49970;54.976;73.248;2023-11-19T00:27:00;2.78;;;1.83;;
63818;SDS011;49970;54.976;73.248;2023-11-19T00:29:26;7.28;;;2.58;;
63818;SDS011;49970;54.976;73.248;2023-11-19T00:31:52;17.15;;;2.10;;
63818;SDS011;49970;54.976;73.248;2023-11-19T00:34:19;10.63;;;1.90;;
63818;SDS011;49970;54.976;73.248;2023-11-19T00:36:47;5.00;;;2.00;;
63818;SDS011;49970;54.976;73.248;2023-11-19T00:39:13;32.70;;;2.22;;
63818;SDS011;49970;54.976;73.248;2023-11-19T00:41:40;4.45;;;1.60;;
63818;SDS011;49970;54.976;73.248;2023-11-19T00:44:07;2.17;;;2.08;;
63818;SDS011;49970;54.976;73.248;2023-11-19T00:46:33;6.53;;;1.60;;
63818;SDS011;49970;54.976;73.248;2023-11-19T00:48:59;2.05;;;1.95;;
63818;SDS011;49970;54.976;73.248;2023-11-19T00:51:26;1.80;;;1.70;;
63818;SDS011;49970;54.976;73.248;2023-11-19T00:53:52;4.65;;;2.25;;
63818;SDS011;49970;54.976;73.248;2023-11-19T00:56:19;2.03;;;1.92;;
63818;SDS011;49970;54.976;73.248;2023-11-19T00:58:45;2.10;;;2.00;;
63818;SDS011;49970;54.976;73.248;2023-11-19T01:01:11;7.95;;;2.58;;
63818;SDS011;49970;54.976;73.248;2023-11-19T01:03:38;2.55;;;1.80;;
63818;SDS011;49970;54.976;73.248;2023-11-19T01:06:04;3.83;;;2.67;;
63818;SDS011;49970;54.976;73.248;2023-11-19T01:08:30;8.65;;;2.28;;
63818;SDS011;49970;54.976;73.248;2023-11-19T01:10:57;2.17;;;1.95;;
63818;SDS011;49970;54.976;73.248;2023-11-19T01:13:23;3.72;;;3.10;;
63818;SDS011;49970;54.976;73.248;2023-11-19T01:15:50;2.45;;;2.25;;
63818;SDS011;49970;54.976;73.248;2023-11-19T01:18:16;2.60;;;2.50;;
63818;SDS011;49970;54.976;73.248;2023-11-19T01:20:43;3.03;;;2.53;;
63818;SDS011;49970;54.976;73.248;2023-11-19T01:23:09;3.65;;;2.33;;
63818;SDS011;49970;54.976;73.248;2023-11-19T01:25:35;12.70;;;2.60;;
63818;SDS011;49970;54.976;73.248;2023-11-19T01:28:03;2.35;;;2.13;;
63818;SDS011;49970;54.976;73.248;2023-11-19T01:30:30;2.58;;;2.25;;
63818;SDS011;49970;54.976;73.248;2023-11-19T01:32:56;5.38;;;2.53;;
63818;SDS011;49970;54.976;73.248;2023-11-19T01:35:22;3.60;;;2.47;;
63818;SDS011;49970;54.976;73.248;2023-11-19T01:37:49;3.40;;;2.60;;
63818;SDS011;49970;54.976;73.248;2023-11-19T01:40:19;2.30;;;2.20;;
63818;SDS011;49970;54.976;73.248;2023-11-19T01:42:46;6.38;;;2.72;;
63818;SDS011;49970;54.976;73.248;2023-11-19T01:45:18;5.90;;;1.95;;
63818;SDS011;49970;54.976;73.248;2023-11-19T01:47:52;3.45;;;3.15;;
63818;SDS011;49970;54.976;73.248;2023-11-19T01:50:18;3.35;;;3.15;;
63818;SDS011;49970;54.976;73.248;2023-11-19T01:52:45;3.67;;;2.40;;
63818;SDS011;49970;54.976;73.248;2023-11-19T01:55:13;2.88;;;2.75;;
63818;SDS011;49970;54.976;73.248;2023-11-19T01:57:39;3.05;;;2.20;;
63818;SDS011;49970;54.976;73.248;2023-11-19T02:00:07;4.05;;;2.65;;
63818;SDS011;49970;54.976;73.248;2023-11-19T02:02:39;2.90;;;2.80;;
63818;SDS011;49970;54.976;73.248;2023-11-19T02:05:06;3.10;;;2.85;;
63818;SDS011;49970;54.976;73.248;2023-11-19T02:07:32;2.40;;;2.25;;
63818;SDS011;49970;54.976;73.248;2023-11-19T02:09:59;2.95;;;2.58;;
63818;SDS011;49970;54.976;73.248;2023-11-19T02:12:28;5.35;;;3.42;;
63818;SDS011;49970;54.976;73.248;2023-11-19T02:14:54;3.35;;;3.05;;
63818;SDS011;49970;54.976;73.248;2023-11-19T02:17:27;2.75;;;2.58;;
63818;SDS011;49970;54.976;73.248;2023-11-19T02:20:00;5.68;;;3.13;;
63818;SDS011;49970;54.976;73.248;2023-11-19T02:22:27;3.10;;;2.90;;
63818;SDS011;49970;54.976;73.248;2023-11-19T02:24:55;3.55;;;3.35;;
63818;SDS011;49970;54.976;73.248;2023-11-19T02:27:49;4.88;;;3.75;;
63818;SDS011;49970;54.976;73.248;2023-11-19T02:30:23;8.48;;;3.72;;
63818;SDS011;49970;54.976;73.248;2023-11-19T02:32:54;6.60;;;3.92;;
63818;SDS011;49970;54.976;73.248;2023-11-19T02:35:24;4.22;;;3.92;;
63818;SDS011;49970;54.976;73.248;2023-11-19T02:37:56;4.50;;;4.13;;
63818;SDS011;49970;54.976;73.248;2023-11-19T02:40:23;5.20;;;4.68;;
63818;SDS011;49970;54.976;73.248;2023-11-19T02:42:50;7.15;;;4.95;;
63818;SDS011;49970;54.976;73.248;2023-11-19T02:45:17;4.88;;;4.53;;
63818;SDS011;49970;54.976;73.248;2023-11-19T02:47:43;5.88;;;5.43;;
63818;SDS011;49970;54.976;73.248;2023-11-19T02:50:13;5.88;;;5.38;;
63818;SDS011;49970;54.976;73.248;2023-11-19T02:52:43;11.23;;;8.00;;
63818;SDS011;49970;54.976;73.248;2023-11-19T02:55:12;11.25;;;9.80;;
63818;SDS011;49970;54.976;73.248;2023-11-19T02:57:39;23.38;;;15.73;;
63818;SDS011;49970;54.976;73.248;2023-11-19T03:02:40;31.35;;;19.25;;
63818;SDS011;49970;54.976;73.248;2023-11-19T03:05:12;21.80;;;14.38;;
63818;SDS011;49970;54.976;73.248;2023-11-19T03:07:41;19.30;;;13.80;;
63818;SDS011;49970;54.976;73.248;2023-11-19T03:10:19;17.27;;;13.13;;
63818;SDS011;49970;54.976;73.248;2023-11-19T03:12:45;14.73;;;11.95;;
63818;SDS011;49970;54.976;73.248;2023-11-19T03:15:12;16.20;;;12.30;;
63818;SDS011;49970;54.976;73.248;2023-11-19T03:17:38;12.95;;;9.63;;
63818;SDS011;49970;54.976;73.248;2023-11-19T03:20:06;10.40;;;8.35;;
63818;SDS011;49970;54.976;73.248;2023-11-19T03:22:37;7.07;;;6.32;;
63818;SDS011;49970;54.976;73.248;2023-11-19T03:25:04;5.47;;;4.97;;
63818;SDS011;49970;54.976;73.248;2023-11-19T03:27:30;5.43;;;4.93;;
63818;SDS011;49970;54.976;73.248;2023-11-19T03:29:56;6.50;;;4.80;;
63818;SDS011;49970;54.976;73.248;2023-11-19T03:32:23;4.28;;;4.00;;
63818;SDS011;49970;54.976;73.248;2023-11-19T03:34:49;6.97;;;5.88;;
63818;SDS011;49970;54.976;73.248;2023-11-19T03:37:15;7.38;;;4.85;;
63818;SDS011;49970;54.976;73.248;2023-11-19T03:39:43;11.18;;;7.00;;
63818;SDS011;49970;54.976;73.248;2023-11-19T03:42:09;5.47;;;4.80;;
63818;SDS011;49970;54.976;73.248;2023-11-19T03:44:35;6.28;;;5.68;;
63818;SDS011;49970;54.976;73.248;2023-11-19T03:47:01;5.65;;;5.05;;
63818;SDS011;49970;54.976;73.248;2023-11-19T03:49:28;7.65;;;5.63;;
63818;SDS011;49970;54.976;73.248;2023-11-19T03:51:54;6.55;;;5.65;;
63818;SDS011;49970;54.976;73.248;2023-11-19T03:54:20;12.73;;;7.70;;
63818;SDS011;49970;54.976;73.248;2023-11-19T03:56:48;9.32;;;6.85;;
63818;SDS011;49970;54.976;73.248;2023-11-19T03:59:14;9.15;;;8.15;;
63818;SDS011;49970;54.976;73.248;2023-11-19T04:01:42;12.73;;;9.57;;
63818;SDS011;49970;54.976;73.248;2023-11-19T04:04:08;9.73;;;8.75;;
63818;SDS011;49970;54.976;73.248;2023-11-19T04:06:34;16.48;;;10.85;;
63818;SDS011;49970;54.976;73.248;2023-11-19T04:09:00;10.95;;;7.80;;
63818;SDS011;49970;54.976;73.248;2023-11-19T04:11:27;6.32;;;5.65;;
63818;SDS011;49970;54.976;73.248;2023-11-19T04:13:53;7.20;;;5.65;;
63818;SDS011;49970;54.976;73.248;2023-11-19T04:16:25;8.38;;;5.57;;
63818;SDS011;49970;54.976;73.248;2023-11-19T04:18:54;5.10;;;4.70;;
63818;SDS011;49970;54.976;73.248;2023-11-19T04:21:20;5.88;;;5.28;;
63818;SDS011;49970;54.976;73.248;2023-11-19T04:23:48;7.82;;;7.10;;
63818;SDS011;49970;54.976;73.248;2023-11-19T04:26:15;9.27;;;6.85;;
63818;SDS011;49970;54.976;73.248;2023-11-19T04:28:41;7.68;;;6.88;;
63818;SDS011;49970;54.976;73.248;2023-11-19T04:31:07;10.52;;;8.55;;
63818;SDS011;49970;54.976;73.248;2023-11-19T04:33:35;13.55;;;10.95;;
63818;SDS011;49970;54.976;73.248;2023-11-19T04:36:01;15.98;;;11.98;;
63818;SDS011;49970;54.976;73.248;2023-11-19T04:38:28;11.85;;;8.98;;
63818;SDS011;49970;54.976;73.248;2023-11-19T04:40:54;19.77;;;15.20;;
63818;SDS011;49970;54.976;73.248;2023-11-19T04:43:22;14.55;;;10.88;;
63818;SDS011;49970;54.976;73.248;2023-11-19T04:45:49;6.47;;;5.88;;
63818;SDS011;49970;54.976;73.248;2023-11-19T04:48:15;5.80;;;5.20;;
63818;SDS011;49970;54.976;73.248;2023-11-19T04:50:41;11.70;;;10.50;;
63818;SDS011;49970;54.976;73.248;2023-11-19T04:53:07;10.25;;;7.90;;
63818;SDS011;49970;54.976;73.248;2023-11-19T04:55:33;7.70;;;6.28;;
63818;SDS011;49970;54.976;73.248;2023-11-19T04:58:00;5.18;;;4.88;;
63818;SDS011;49970;54.976;73.248;2023-11-19T05:00:26;4.25;;;3.92;;
63818;SDS011;49970;54.976;73.248;2023-11-19T05:02:52;7.53;;;6.85;;
63818;SDS011;49970;54.976;73.248;2023-11-19T05:05:18;15.02;;;12.15;;
63818;SDS011;49970;54.976;73.248;2023-11-19T05:07:44;7.70;;;7.10;;
63818;SDS011;49970;54.976;73.248;2023-11-19T05:10:11;3.75;;;3.17;;
63818;SDS011;49970;54.976;73.248;2023-11-19T05:12:37;6.43;;;5.93;;
63818;SDS011;49970;54.976;73.248;2023-11-19T05:15:04;8.20;;;6.95;;
63818;SDS011;49970;54.976;73.248;2023-11-19T05:17:31;14.07;;;12.10;;
63818;SDS011;49970;54.976;73.248;2023-11-19T05:19:57;6.60;;;5.40;;
63818;SDS011;49970;54.976;73.248;2023-11-19T05:22:24;4.97;;;4.57;;
63818;SDS011;49970;54.976;73.248;2023-11-19T05:24:50;5.85;;;5.00;;
63818;SDS011;49970;54.976;73.248;2023-11-19T05:27:16;4.25;;;3.85;;
63818;SDS011;49970;54.976;73.248;2023-11-19T05:29:42;6.30;;;5.25;;
63818;SDS011;49970;54.976;73.248;2023-11-19T05:32:09;8.55;;;5.25;;
63818;SDS011;49970;54.976;73.248;2023-11-19T05:34:36;4.10;;;3.78;;
63818;SDS011;49970;54.976;73.248;2023-11-19T05:37:02;4.93;;;4.47;;
63818;SDS011;49970;54.976;73.248;2023-11-19T05:39:28;4.10;;;3.75;;
63818;SDS011;49970;54.976;73.248;2023-11-19T05:41:55;3.10;;;3.00;;
63818;SDS011;49970;54.976;73.248;2023-11-19T05:44:21;12.70;;;10.75;;
63818;SDS011;49970;54.976;73.248;2023-11-19T05:46:47;10.30;;;7.65;;
63818;SDS011;49970;54.976;73.248;2023-11-19T05:49:13;8.98;;;8.07;;
63818;SDS011;49970;54.976;73.248;2023-11-19T05:51:40;8.82;;;7.97;;
63818;SDS011;49970;54.976;73.248;2023-11-19T05:54:07;5.60;;;4.50;;
63818;SDS011;49970;54.976;73.248;2023-11-19T05:56:34;4.03;;;2.65;;
63818;SDS011;49970;54.976;73.248;2023-11-19T05:59:00;3.83;;;3.53;;
63818;SDS011;49970;54.976;73.248;2023-11-19T06:01:29;4.22;;;3.92;;
63818;SDS011;49970;54.976;73.248;2023-11-19T06:03:55;12.10;;;10.32;;
63818;SDS011;49970;54.976;73.248;2023-11-19T06:06:21;6.75;;;5.97;;
63818;SDS011;49970;54.976;73.248;2023-11-19T06:09:50;4.25;;;3.95;;
63818;SDS011;49970;54.976;73.248;2023-11-19T06:12:17;3.17;;;2.97;;
63818;SDS011;49970;54.976;73.248;2023-11-19T06:14:43;2.75;;;2.55;;
63818;SDS011;49970;54.976;73.248;2023-11-19T06:17:09;5.88;;;5.47;;
63818;SDS011;49970;54.976;73.248;2023-11-19T06:19:37;6.68;;;5.47;;
63818;SDS011;49970;54.976;73.248;2023-11-19T06:22:06;6.97;;;4.25;;
63818;SDS011;49970;54.976;73.248;2023-11-19T06:24:32;3.95;;;3.58;;
63818;SDS011;49970;54.976;73.248;2023-11-19T06:26:58;5.10;;;4.65;;
63818;SDS011;49970;54.976;73.248;2023-11-19T06:29:25;11.80;;;7.80;;
63818;SDS011;49970;54.976;73.248;2023-11-19T06:31:51;6.35;;;5.75;;
63818;SDS011;49970;54.976;73.248;2023-11-19T06:34:17;7.07;;;5.15;;
63818;SDS011;49970;54.976;73.248;2023-11-19T06:36:44;4.15;;;3.78;;
63818;SDS011;49970;54.976;73.248;2023-11-19T06:39:10;3.28;;;3.03;;
63818;SDS011;49970;54.976;73.248;2023-11-19T06:41:36;3.70;;;3.40;;
63818;SDS011;49970;54.976;73.248;2023-11-19T06:44:04;4.20;;;3.90;;
63818;SDS011;49970;54.976;73.248;2023-11-19T06:46:31;6.75;;;2.70;;
63818;SDS011;49970;54.976;73.248;2023-11-19T06:48:57;3.55;;;2.90;;
63818;SDS011;49970;54.976;73.248;2023-11-19T06:51:23;2.97;;;2.85;;
63818;SDS011;49970;54.976;73.248;2023-11-19T06:53:52;2.95;;;2.75;;
63818;SDS011;49970;54.976;73.248;2023-11-19T06:56:22;6.13;;;2.83;;
63818;SDS011;49970;54.976;73.248;2023-11-19T06:58:49;3.20;;;3.00;;
63818;SDS011;49970;54.976;73.248;2023-11-19T07:01:16;3.25;;;2.95;;
63818;SDS011;49970;54.976;73.248;2023-11-19T07:03:44;3.40;;;3.10;;
63818;SDS011;49970;54.976;73.248;2023-11-19T07:06:13;3.42;;;2.85;;
63818;SDS011;49970;54.976;73.248;2023-11-19T07:08:43;3.58;;;2.63;;
63818;SDS011;49970;54.976;73.248;2023-11-19T07:11:13;2.95;;;2.70;;
63818;SDS011;49970;54.976;73.248;2023-11-19T07:13:42;3.03;;;2.60;;
63818;SDS011;49970;54.976;73.248;2023-11-19T07:16:08;6.15;;;4.22;;
63818;SDS011;49970;54.976;73.248;2023-11-19T07:18:37;6.38;;;4.03;;
63818;SDS011;49970;54.976;73.248;2023-11-19T07:21:04;5.00;;;3.92;;
63818;SDS011;49970;54.976;73.248;2023-11-19T07:23:30;4.50;;;4.10;;
63818;SDS011;49970;54.976;73.248;2023-11-19T07:25:56;5.10;;;4.53;;
63818;SDS011;49970;54.976;73.248;2023-11-19T07:28:23;5.85;;;4.60;;
63818;SDS011;49970;54.976;73.248;2023-11-19T07:30:49;5.40;;;3.70;;
63818;SDS011;49970;54.976;73.248;2023-11-19T07:33:15;2.90;;;2.63;;
63818;SDS011;49970;54.976;73.248;2023-11-19T07:35:42;2.97;;;2.67;;
63818;SDS011;49970;54.976;73.248;2023-11-19T07:38:09;2.65;;;2.28;;
63818;SDS011;49970;54.976;73.248;2023-11-19T07:40:35;4.05;;;2.60;;
63818;SDS011;49970;54.976;73.248;2023-11-19T07:43:01;2.58;;;2.47;;
63818;SDS011;49970;54.976;73.248;2023-11-19T07:45:28;4.57;;;2.30;;
63818;SDS011;49970;54.976;73.248;2023-11-19T07:47:54;4.72;;;2.75;;
63818;SDS011;49970;54.976;73.248;2023-11-19T07:50:20;3.25;;;2.70;;
63818;SDS011;49970;54.976;73.248;2023-11-19T07:52:46;2.63;;;2.40;;
63818;SDS011;49970;54.976;73.248;2023-11-19T07:55:13;2.50;;;2.35;;
63818;SDS011;49970;54.976;73.248;2023-11-19T07:57:39;2.65;;;2.50;;
63818;SDS011;49970;54.976;73.248;2023-11-19T08:00:05;4.32;;;3.92;;
63818;SDS011;49970;54.976;73.248;2023-11-19T08:02:38;3.38;;;3.05;;
63818;SDS011;49970;54.976;73.248;2023-11-19T08:05:04;2.38;;;2.28;;
63818;SDS011;49970;54.976;73.248;2023-11-19T08:07:31;2.25;;;2.15;;
63818;SDS011;49970;54.976;73.248;2023-11-19T08:09:57;4.03;;;3.10;;
63818;SDS011;49970;54.976;73.248;2023-11-19T08:12:23;6.57;;;4.40;;
63818;SDS011;49970;54.976;73.248;2023-11-19T08:14:50;6.15;;;4.82;;
63818;SDS011;49970;54.976;73.248;2023-11-19T08:17:16;5.32;;;4.78;;
63818;SDS011;49970;54.976;73.248;2023-11-19T08:19:42;5.95;;;5.45;;
63818;SDS011;49970;54.976;73.248;2023-11-19T08:22:08;4.55;;;4.22;;
63818;SDS011;49970;54.976;73.248;2023-11-19T08:24:35;7.38;;;4.00;;
63818;SDS011;49970;54.976;73.248;2023-11-19T08:27:01;3.53;;;3.17;;
63818;SDS011;49970;54.976;73.248;2023-11-19T08:29:27;2.97;;;2.78;;
63818;SDS011;49970;54.976;73.248;2023-11-19T08:31:54;3.13;;;2.92;;
63818;SDS011;49970;54.976;73.248;2023-11-19T08:34:20;3.15;;;2.95;;
63818;SDS011;49970;54.976;73.248;2023-11-19T08:36:49;2.60;;;2.40;;
63818;SDS011;49970;54.976;73.248;2023-11-19T08:39:16;14.38;;;5.00;;
63818;SDS011;49970;54.976;73.248;2023-11-19T08:41:42;11.65;;;4.78;;
63818;SDS011;49970;54.976;73.248;2023-11-19T08:44:08;39.28;;;10.27;;
63818;SDS011;49970;54.976;73.248;2023-11-19T08:46:35;50.30;;;11.88;;
63818;SDS011;49970;54.976;73.248;2023-11-19T08:49:01;15.52;;;7.90;;
63818;SDS011;49970;54.976;73.248;2023-11-19T08:51:28;3.60;;;3.05;;
63818;SDS011;49970;54.976;73.248;2023-11-19T08:53:54;3.42;;;2.40;;
63818;SDS011;49970;54.976;73.248;2023-11-19T08:56:21;2.67;;;2.35;;
63818;SDS011;49970;54.976;73.248;2023-11-19T08:58:47;10.38;;;7.63;;
63818;SDS011;49970;54.976;73.248;2023-11-19T09:01:13;6.78;;;5.78;;
63818;SDS011;49970;54.976;73.248;2023-11-19T09:03:40;8.38;;;5.40;;
63818;SDS011;49970;54.976;73.248;2023-11-19T09:06:06;4.40;;;4.00;;
63818;SDS011;49970;54.976;73.248;2023-11-19T09:08:32;4.22;;;4.00;;
63818;SDS011;49970;54.976;73.248;2023-11-19T09:10:59;4.15;;;3.40;;
63818;SDS011;49970;54.976;73.248;2023-11-19T09:13:25;3.97;;;3.67;;
63818;SDS011;49970;54.976;73.248;2023-11-19T09:15:51;3.22;;;2.83;;
63818;SDS011;49970;54.976;73.248;2023-11-19T09:18:17;2.95;;;2.78;;
63818;SDS011;49970;54.976;73.248;2023-11-19T09:20:44;4.15;;;3.72;;
63818;SDS011;49970;54.976;73.248;2023-11-19T09:23:11;3.80;;;3.35;;
63818;SDS011;49970;54.976;73.248;2023-11-19T09:25:38;3.13;;;2.92;;
63818;SDS011;49970;54.976;73.248;2023-11-19T09:28:04;3.75;;;2.95;;
63818;SDS011;49970;54.976;73.248;2023-11-19T09:30:31;3.67;;;3.33;;
63818;SDS011;49970;54.976;73.248;2023-11-19T09:32:59;3.33;;;3.13;;
63818;SDS011;49970;54.976;73.248;2023-11-19T09:35:25;5.97;;;5.30;;
63818;SDS011;49970;54.976;73.248;2023-11-19T09:37:51;10.55;;;6.38;;
63818;SDS011;49970;54.976;73.248;2023-11-19T09:40:18;5.88;;;5.20;;
63818;SDS011;49970;54.976;73.248;2023-11-19T09:42:44;10.48;;;7.20;;
63818;SDS011;49970;54.976;73.248;2023-11-19T09:45:16;6.15;;;5.00;;
63818;SDS011;49970;54.976;73.248;2023-11-19T09:47:46;6.28;;;4.70;;
63818;SDS011;49970;54.976;73.248;2023-11-19T09:50:17;7.07;;;4.07;;
63818;SDS011;49970;54.976;73.248;2023-11-19T09:52:47;3.33;;;2.92;;
63818;SDS011;49970;54.976;73.248;2023-11-19T09:55:13;2.90;;;2.70;;
63818;SDS011;49970;54.976;73.248;2023-11-19T09:57:40;2.85;;;2.13;;
63818;SDS011;49970;54.976;73.248;2023-11-19T10:00:07;4.00;;;3.60;;
63818;SDS011;49970;54.976;73.248;2023-11-19T10:02:36;6.07;;;4.55;;
63818;SDS011;49970;54.976;73.248;2023-11-19T10:05:06;25.95;;;11.43;;
63818;SDS011;49970;54.976;73.248;2023-11-19T10:07:33;12.80;;;5.80;;
63818;SDS011;49970;54.976;73.248;2023-11-19T10:10:00;5.18;;;3.92;;
63818;SDS011;49970;54.976;73.248;2023-11-19T10:12:27;8.13;;;4.43;;
63818;SDS011;49970;54.976;73.248;2023-11-19T10:14:55;5.03;;;3.10;;
63818;SDS011;49970;54.976;73.248;2023-11-19T10:17:27;8.48;;;5.63;;
63818;SDS011;49970;54.976;73.248;2023-11-19T10:20:00;8.80;;;6.63;;
63818;SDS011;49970;54.976;73.248;2023-11-19T10:22:29;6.93;;;6.25;;
63818;SDS011;49970;54.976;73.248;2023-11-19T10:24:56;4.53;;;4.05;;
63818;SDS011;49970;54.976;73.248;2023-11-19T10:27:23;11.23;;;7.90;;
63818;SDS011;49970;54.976;73.248;2023-11-19T10:29:51;14.75;;;9.25;;
63818;SDS011;49970;54.976;73.248;2023-11-19T10:32:17;11.13;;;8.20;;
63818;SDS011;49970;54.976;73.248;2023-11-19T10:34:43;12.98;;;9.15;;
63818;SDS011;49970;54.976;73.248;2023-11-19T10:37:20;16.45;;;8.07;;
63818;SDS011;49970;54.976;73.248;2023-11-19T10:39:54;8.10;;;4.72;;
63818;SDS011;49970;54.976;73.248;2023-11-19T10:42:20;5.18;;;4.25;;
63818;SDS011;49970;54.976;73.248;2023-11-19T10:44:47;9.73;;;5.60;;
63818;SDS011;49970;54.976;73.248;2023-11-19T10:47:14;12.65;;;7.22;;
63818;SDS011;49970;54.976;73.248;2023-11-19T10:49:43;16.17;;;8.15;;
63818;SDS011;49970;54.976;73.248;2023-11-19T10:52:11;15.38;;;8.15;;
63818;SDS011;49970;54.976;73.248;2023-11-19T10:54:39;11.15;;;7.28;;
63818;SDS011;49970;54.976;73.248;2023-11-19T10:57:10;8.20;;;5.05;;
63818;SDS011;49970;54.976;73.248;2023-11-19T10:59:45;14.27;;;6.88;;
63818;SDS011;49970;54.976;73.248;2023-11-19T11:02:11;15.88;;;5.85;;
63818;SDS011;49970;54.976;73.248;2023-11-19T11:04:44;5.03;;;3.70;;
63818;SDS011;49970;54.976;73.248;2023-11-19T11:07:13;9.70;;;5.03;;
63818;SDS011;49970;54.976;73.248;2023-11-19T11:09:41;19.35;;;7.38;;
63818;SDS011;49970;54.976;73.248;2023-11-19T11:12:09;22.45;;;8.63;;
63818;SDS011;49970;54.976;73.248;2023-11-19T11:14:37;10.38;;;6.20;;
63818;SDS011;49970;54.976;73.248;2023-11-19T11:17:06;12.32;;;5.05;;
63818;SDS011;49970;54.976;73.248;2023-11-19T11:19:35;5.75;;;4.85;;
63818;SDS011;49970;54.976;73.248;2023-11-19T11:22:02;13.93;;;4.47;;
63818;SDS011;49970;54.976;73.248;2023-11-19T11:38:23;12.55;;;7.25;;
63818;SDS011;49970;54.976;73.248;2023-11-19T11:43:48;11.07;;;8.48;;
63818;SDS011;49970;54.976;73.248;2023-11-19T11:49:01;14.80;;;7.93;;
63818;SDS011;49970;54.976;73.248;2023-11-19T11:54:11;17.45;;;10.00;;
63818;SDS011;49970;54.976;73.248;2023-11-19T11:57:07;40.35;;;12.57;;
63818;SDS011;49970;54.976;73.248;2023-11-19T12:02:08;11.63;;;8.13;;
63818;SDS011;49970;54.976;73.248;2023-11-19T12:04:36;9.07;;;7.90;;
63818;SDS011;49970;54.976;73.248;2023-11-19T12:07:04;15.55;;;7.35;;
63818;SDS011;49970;54.976;73.248;2023-11-19T12:09:33;8.15;;;6.70;;
63818;SDS011;49970;54.976;73.248;2023-11-19T12:20:00;10.43;;;6.68;;
63818;SDS011;49970;54.976;73.248;2023-11-19T12:22:37;10.43;;;7.13;;
63818;SDS011;49970;54.976;73.248;2023-11-19T12:25:05;11.82;;;8.20;;
63818;SDS011;49970;54.976;73.248;2023-11-19T12:27:32;9.98;;;6.70;;
63818;SDS011;49970;54.976;73.248;2023-11-19T12:30:02;11.07;;;7.50;;
63818;SDS011;49970;54.976;73.248;2023-11-19T12:35:07;9.15;;;6.43;;
63818;SDS011;49970;54.976;73.248;2023-11-19T12:37:43;12.88;;;7.75;;
63818;SDS011;49970;54.976;73.248;2023-11-19T12:40:15;10.95;;;5.93;;
63818;SDS011;49970;54.976;73.248;2023-11-19T12:42:52;14.48;;;8.48;;
63818;SDS011;49970;54.976;73.248;2023-11-19T12:45:19;26.05;;;11.45;;
63818;SDS011;49970;54.976;73.248;2023-11-19T12:47:47;20.30;;;11.60;;
63818;SDS011;49970;54.976;73.248;2023-11-19T12:50:15;24.45;;;12.63;;
63818;SDS011;49970;54.976;73.248;2023-11-19T12:52:58;17.98;;;10.80;;
63818;SDS011;49970;54.976;73.248;2023-11-19T12:55:28;19.77;;;11.57;;
63818;SDS011;49970;54.976;73.248;2023-11-19T12:57:56;19.52;;;9.23;;
63818;SDS011;49970;54.976;73.248;2023-11-19T13:00:24;15.18;;;10.02;;
63818;SDS011;49970;54.976;73.248;2023-11-19T13:02:53;14.40;;;9.30;;
63818;SDS011;49970;54.976;73.248;2023-11-19T13:07:59;11.98;;;7.90;;
63818;SDS011;49970;54.976;73.248;2023-11-19T13:10:28;9.68;;;7.53;;
63818;SDS011;49970;54.976;73.248;2023-11-19T13:15:49;13.32;;;8.32;;
63818;SDS011;49970;54.976;73.248;2023-11-19T13:18:16;15.07;;;9.38;;
63818;SDS011;49970;54.976;73.248;2023-11-19T13:20:42;18.15;;;9.68;;
63818;SDS011;49970;54.976;73.248;2023-11-19T13:23:19;27.70;;;10.40;;
63818;SDS011;49970;54.976;73.248;2023-11-19T13:25:46;17.02;;;8.52;;
63818;SDS011;49970;54.976;73.248;2023-11-19T13:28:12;13.48;;;8.82;;
63818;SDS011;49970;54.976;73.248;2023-11-19T13:30:57;12.65;;;9.48;;
63818;SDS011;49970;54.976;73.248;2023-11-19T13:33:23;16.60;;;9.18;;
63818;SDS011;49970;54.976;73.248;2023-11-19T13:35:54;17.65;;;7.95;;
63818;SDS011;49970;54.976;73.248;2023-11-19T13:38:21;11.02;;;8.05;;
63818;SDS011;49970;54.976;73.248;2023-11-19T13:40:48;16.83;;;7.40;;
63818;SDS011;49970;54.976;73.248;2023-11-19T13:43:15;13.80;;;6.90;;
63818;SDS011;49970;54.976;73.248;2023-11-19T13:45:41;9.48;;;7.13;;
63818;SDS011;49970;54.976;73.248;2023-11-19T13:48:08;8.57;;;7.22;;
63818;SDS011;49970;54.976;73.248;2023-11-19T13:50:43;7.28;;;6.50;;
63818;SDS011;49970;54.976;73.248;2023-11-19T13:53:10;10.20;;;7.03;;
63818;SDS011;49970;54.976;73.248;2023-11-19T13:55:37;12.23;;;7.35;;
63818;SDS011;49970;54.976;73.248;2023-11-19T13:58:04;8.07;;;6.53;;
63818;SDS011;49970;54.976;73.248;2023-11-19T14:00:30;9.65;;;7.53;;
63818;SDS011;49970;54.976;73.248;2023-11-19T14:02:56;11.93;;;6.65;;
63818;SDS011;49970;54.976;73.248;2023-11-19T14:05:23;12.25;;;6.07;;
63818;SDS011;49970;54.976;73.248;2023-11-19T14:07:49;7.75;;;7.05;;
63818;SDS011;49970;54.976;73.248;2023-11-19T14:10:17;8.65;;;7.13;;
63818;SDS011;49970;54.976;73.248;2023-11-19T14:12:44;14.32;;;7.50;;
63818;SDS011;49970;54.976;73.248;2023-11-19T14:15:11;14.05;;;7.32;;
63818;SDS011;49970;54.976;73.248;2023-11-19T14:17:40;12.10;;;7.78;;
63818;SDS011;49970;54.976;73.248;2023-11-19T14:20:06;10.68;;;8.13;;
63818;SDS011;49970;54.976;73.248;2023-11-19T14:22:39;9.20;;;7.00;;
63818;SDS011;49970;54.976;73.248;2023-11-19T14:25:09;18.40;;;8.68;;
63818;SDS011;49970;54.976;73.248;2023-11-19T14:27:36;12.80;;;9.10;;
63818;SDS011;49970;54.976;73.248;2023-11-19T14:30:07;12.65;;;9.63;;
63818;SDS011;49970;54.976;73.248;2023-11-19T14:32:37;15.63;;;9.18;;
63818;SDS011;49970;54.976;73.248;2023-11-19T14:35:04;15.63;;;9.25;;
63818;SDS011;49970;54.976;73.248;2023-11-19T14:37:31;17.98;;;9.63;;
63818;SDS011;49970;54.976;73.248;2023-11-19T14:39:58;18.95;;;9.40;;
63818;SDS011;49970;54.976;73.248;2023-11-19T14:42:25;19.05;;;10.52;;
63818;SDS011;49970;54.976;73.248;2023-11-19T14:44:51;18.88;;;11.00;;
63818;SDS011;49970;54.976;73.248;2023-11-19T14:47:21;19.13;;;9.98;;
63818;SDS011;49970;54.976;73.248;2023-11-19T14:49:48;17.63;;;10.05;;
63818;SDS011;49970;54.976;73.248;2023-11-19T14:52:14;16.20;;;9.40;;
63818;SDS011;49970;54.976;73.248;2023-11-19T14:54:41;17.42;;;9.32;;
63818;SDS011;49970;54.976;73.248;2023-11-19T14:57:07;14.82;;;9.85;;
63818;SDS011;49970;54.976;73.248;2023-11-19T14:59:35;12.32;;;8.68;;
63818;SDS011;49970;54.976;73.248;2023-11-19T15:02:02;14.98;;;9.25;;
63818;SDS011;49970;54.976;73.248;2023-11-19T15:04:29;13.85;;;9.48;;
63818;SDS011;49970;54.976;73.248;2023-11-19T15:07:05;15.60;;;9.88;;
63818;SDS011;49970;54.976;73.248;2023-11-19T15:09:31;14.88;;;9.15;;
63818;SDS011;49970;54.976;73.248;2023-11-19T15:11:58;14.82;;;9.05;;
63818;SDS011;49970;54.976;73.248;2023-11-19T15:14:25;14.55;;;9.45;;
63818;SDS011;49970;54.976;73.248;2023-11-19T15:16:51;14.68;;;8.63;;